KSTP

St Paul Downtown Holman Field Airport

St Paul, Minnesota, USA
METAR KSTP 190853Z AUTO 03004KT 10SM OVC008 16/15 A3000 RMK AO2 SLP157 T01610150 58003
Observed Flight Rules
Sep-19 @ 08:53 UTC (10 minutes ago) Instrument Flight Rules
Wind Visibility Clouds
30° at 4 knots 10 miles
  • Overcast at 800' AGL
Temperatures Readings
Current 16°C / 61°F
Dewpoint 15°C / 59°F
Humidity 94%
Altimeter 30" Hg
Pressure 1015.7 hPa
Elevation 219
METAR KSTP 190853Z AUTO 03004KT 10SM OVC008 16/15 A3000 RMK AO2 SLP157 T01610150 58003
Observed Flight Rules
Sep-19 @ 08:53 UTC
(10 minutes ago)
IFR
Wind Visibility
30° at 4 knots 10 miles
Clouds
  • Overcast at 800' AGL
Temperature Dewpoint
16°C / 61°F 15°C / 59°F
Humidity Altimeter Pressure
94% 30" Hg 1015.7 hPa